Time;durP1;ratioP1;P1;durP2;ratioP2;P2;SDS_P1;SDS_P2;PMS_P1;PMS_P2;Temp;Humidity;BMP_temperature;BMP_pressure;BME280_temperature;BME280_humidity;BME280_pressure;Samples;Min_cycle;Max_cycle;Signal;HPM_P1;HPM_P2
2023/10/19 00:00:39;;;;;;;8.05;4.95;;;8.70;99.90;;;;;;5037792;28;20224;-78
2023/10/19 00:03:06;;;;;;;9.50;6.10;;;8.70;99.90;;;;;;5025561;28;20043;-78
2023/10/19 00:05:35;;;;;;;8.38;5.68;;;8.70;99.90;;;;;;5034275;28;20088;-77
2023/10/19 00:08:20;;;;;;;11.05;5.68;;;8.70;99.90;;;;;;5038022;28;20088;-78
2023/10/19 00:10:53;;;;;;;9.80;5.82;;;8.70;99.90;;;;;;5019332;28;20076;-78
2023/10/19 00:13:19;;;;;;;7.95;4.55;;;8.60;99.90;;;;;;5042171;28;20029;-78
2023/10/19 00:15:49;;;;;;;7.82;4.53;;;8.60;99.90;;;;;;5031356;28;20157;-78
2023/10/19 00:23:13;;;;;;;13.77;6.65;;;8.60;99.90;;;;;;5042378;28;20159;-79
2023/10/19 00:25:41;;;;;;;10.02;6.78;;;8.60;99.90;;;;;;5035889;28;20034;-78
2023/10/19 00:28:08;;;;;;;13.20;6.00;;;8.50;99.90;;;;;;5033282;28;20056;-78
2023/10/19 00:30:37;;;;;;;8.48;5.47;;;8.50;99.90;;;;;;5037734;28;20037;-78
2023/10/19 00:33:15;;;;;;;10.73;5.63;;;8.50;99.90;;;;;;5040219;28;20431;-78
2023/10/19 00:36:14;;;;;;;12.95;7.15;;;8.50;99.90;;;;;;5039120;28;20124;-78
2023/10/19 00:41:00;;;;;;;9.18;5.18;;;8.50;99.90;;;;;;5041528;28;20136;-78
2023/10/19 00:43:34;;;;;;;9.77;6.38;;;8.50;99.90;;;;;;5030138;28;20041;-78
2023/10/19 00:46:09;;;;;;;10.30;6.28;;;8.50;99.90;;;;;;5023105;28;20045;-78
2023/10/19 00:48:36;;;;;;;10.40;6.97;;;8.40;99.90;;;;;;5034983;28;20337;-78
2023/10/19 00:51:09;;;;;;;12.45;6.85;;;8.40;99.90;;;;;;5036923;28;20120;-78
2023/10/19 00:53:39;;;;;;;10.48;6.72;;;8.50;99.90;;;;;;5039395;28;20543;-78
2023/10/19 00:56:09;;;;;;;11.35;6.22;;;8.40;99.90;;;;;;5041351;28;20221;-78
2023/10/19 00:58:39;;;;;;;11.85;6.47;;;8.40;99.90;;;;;;5018831;28;20041;-78
2023/10/19 01:01:08;;;;;;;12.27;6.32;;;8.50;99.90;;;;;;5038215;28;20041;-78
2023/10/19 01:03:38;;;;;;;13.20;6.88;;;8.50;99.90;;;;;;5040920;28;20049;-78
2023/10/19 01:06:12;;;;;;;16.05;7.63;;;8.40;99.90;;;;;;5096651;22;20502;-78
2023/10/19 01:08:41;;;;;;;22.13;6.45;;;8.40;99.90;;;;;;5015767;28;20045;-78
2023/10/19 01:11:11;;;;;;;11.13;6.97;;;8.40;99.90;;;;;;5022486;28;20173;-77
2023/10/19 01:13:38;;;;;;;12.18;6.88;;;8.40;99.90;;;;;;5011856;28;20037;-78
2023/10/19 01:16:04;;;;;;;11.00;7.15;;;8.40;99.90;;;;;;5023082;28;20068;-78
2023/10/19 01:18:33;;;;;;;9.95;5.57;;;8.40;99.90;;;;;;5020611;28;20069;-78
2023/10/19 01:21:04;;;;;;;13.75;6.15;;;8.50;99.90;;;;;;5015461;28;20502;-78
2023/10/19 01:23:30;;;;;;;15.15;7.63;;;8.50;99.90;;;;;;5022063;28;20098;-77
2023/10/19 01:25:59;;;;;;;9.00;6.85;;;8.50;99.90;;;;;;5022387;28;20042;-78
2023/10/19 01:28:48;;;;;;;11.52;6.82;;;8.40;99.90;;;;;;5018326;28;20065;-78
2023/10/19 01:33:57;;;;;;;26.65;7.43;;;8.40;99.90;;;;;;5022020;28;20107;-78
2023/10/19 01:38:53;;;;;;;8.95;6.63;;;8.50;99.90;;;;;;5013541;28;20827;-78
2023/10/19 01:41:19;;;;;;;10.80;5.88;;;8.50;99.90;;;;;;5009066;28;20671;-78
2023/10/19 01:43:48;;;;;;;10.45;7.07;;;8.50;99.90;;;;;;5022562;28;20041;-78
2023/10/19 01:46:22;;;;;;;12.80;7.47;;;8.50;99.90;;;;;;5023217;28;20049;-78
2023/10/19 01:48:50;;;;;;;10.13;6.63;;;8.50;99.90;;;;;;5021706;28;20045;-78
2023/10/19 01:51:16;;;;;;;11.77;6.75;;;8.50;99.90;;;;;;5020642;28;20077;-78
2023/10/19 01:53:46;;;;;;;12.98;6.88;;;8.50;99.90;;;;;;5018964;28;20045;-78
2023/10/19 01:56:12;;;;;;;9.63;6.60;;;8.50;99.90;;;;;;5022833;28;20098;-78
2023/10/19 01:58:39;;;;;;;9.60;5.65;;;8.50;99.90;;;;;;5023540;28;20483;-78
2023/10/19 02:01:18;;;;;;;10.48;7.22;;;8.50;99.90;;;;;;5023219;28;20373;-78
2023/10/19 02:03:44;;;;;;;12.13;6.53;;;8.50;99.90;;;;;;5002442;28;20536;-78
2023/10/19 02:06:19;;;;;;;10.82;6.65;;;8.50;99.90;;;;;;5008411;28;20061;-78
2023/10/19 02:09:21;;;;;;;11.35;6.53;;;8.50;99.90;;;;;;5023088;28;20833;-78
2023/10/19 02:11:48;;;;;;;12.52;6.28;;;8.50;99.90;;;;;;5021608;28;20068;-78
2023/10/19 02:14:18;;;;;;;8.90;5.22;;;8.50;99.90;;;;;;5023414;28;20814;-78
2023/10/19 02:16:52;;;;;;;9.75;6.65;;;8.50;99.90;;;;;;5022864;28;20128;-78
2023/10/19 02:19:22;;;;;;;8.32;4.57;;;8.50;99.90;;;;;;5021514;28;20068;-78
2023/10/19 02:21:56;;;;;;;7.88;5.18;;;8.50;99.90;;;;;;5022543;28;20119;-78
2023/10/19 02:24:21;;;;;;;8.50;4.75;;;8.50;99.90;;;;;;5023075;28;20038;-78
2023/10/19 02:26:51;;;;;;;9.30;5.13;;;8.50;99.90;;;;;;5022439;28;20044;-78
2023/10/19 02:29:18;;;;;;;9.88;5.32;;;8.50;99.90;;;;;;5022201;28;20046;-78
2023/10/19 02:31:44;;;;;;;7.63;4.88;;;8.50;99.90;;;;;;5021114;28;20049;-78
2023/10/19 02:34:14;;;;;;;7.40;3.88;;;8.50;99.90;;;;;;5020093;28;20475;-79
2023/10/19 02:36:41;;;;;;;8.02;5.22;;;8.50;99.90;;;;;;5020453;28;20045;-79
2023/10/19 02:39:10;;;;;;;6.57;4.30;;;8.50;99.90;;;;;;5019011;28;20037;-78
2023/10/19 02:41:37;;;;;;;9.25;4.75;;;8.50;99.90;;;;;;5023159;28;20091;-78
2023/10/19 02:46:31;;;;;;;5.97;4.35;;;8.50;99.90;;;;;;5013684;28;20053;-78
2023/10/19 02:49:03;;;;;;;6.30;4.53;;;8.50;99.90;;;;;;5016966;28;20037;-78
2023/10/19 02:51:30;;;;;;;8.48;4.95;;;8.50;99.90;;;;;;5004479;28;20396;-78
2023/10/19 02:53:57;;;;;;;6.90;5.43;;;8.50;99.90;;;;;;5020552;28;20049;-78
2023/10/19 02:56:23;;;;;;;8.45;6.38;;;8.50;99.90;;;;;;5022374;28;20124;-78
2023/10/19 02:58:49;;;;;;;7.38;4.85;;;8.50;99.90;;;;;;5022050;28;20399;-78
2023/10/19 03:01:21;;;;;;;7.75;3.35;;;8.50;99.90;;;;;;5021132;28;20125;-78
2023/10/19 03:03:50;;;;;;;4.72;3.63;;;8.50;99.90;;;;;;5021550;28;20041;-78
2023/10/19 03:06:21;;;;;;;5.93;3.63;;;8.50;99.90;;;;;;5002944;28;20053;-78
2023/10/19 03:08:47;;;;;;;6.18;3.70;;;8.50;99.90;;;;;;5021820;28;20058;-78
2023/10/19 03:11:14;;;;;;;6.93;4.45;;;8.50;99.90;;;;;;5021026;28;20076;-78
2023/10/19 03:13:41;;;;;;;5.57;3.45;;;8.50;99.90;;;;;;5020995;28;20080;-78
2023/10/19 03:16:07;;;;;;;5.72;3.47;;;8.50;99.90;;;;;;5022101;28;20048;-78
2023/10/19 03:18:34;;;;;;;5.80;3.25;;;8.50;99.90;;;;;;5020404;28;20083;-78
2023/10/19 03:21:03;;;;;;;6.30;3.63;;;8.50;99.90;;;;;;5019926;28;20045;-78
2023/10/19 03:23:29;;;;;;;9.38;3.53;;;8.50;99.90;;;;;;5020651;28;20513;-78
2023/10/19 03:28:40;;;;;;;6.30;2.80;;;8.50;99.90;;;;;;5007755;28;20084;-78
2023/10/19 03:31:07;;;;;;;4.70;2.90;;;8.50;99.90;;;;;;5016791;28;20527;-78
2023/10/19 03:33:36;;;;;;;3.20;2.90;;;8.50;99.90;;;;;;4989119;28;20033;-78
2023/10/19 03:36:03;;;;;;;3.10;2.78;;;8.60;99.90;;;;;;5020280;28;20053;-78
2023/10/19 03:38:34;;;;;;;3.60;2.65;;;8.60;99.90;;;;;;5008988;28;20107;-78
2023/10/19 03:41:06;;;;;;;3.40;2.53;;;8.60;99.90;;;;;;5003546;28;20042;-78
2023/10/19 03:43:32;;;;;;;6.55;2.80;;;8.60;99.90;;;;;;5005705;28;20113;-78
2023/10/19 03:45:58;;;;;;;10.82;3.08;;;8.60;99.90;;;;;;5020383;28;20111;-78
2023/10/19 03:48:30;;;;;;;3.53;2.25;;;8.60;99.90;;;;;;5019779;28;20041;-78
2023/10/19 03:50:56;;;;;;;6.28;2.53;;;8.60;99.90;;;;;;5016736;28;20107;-78
2023/10/19 03:53:23;;;;;;;5.45;2.17;;;8.60;99.90;;;;;;5004908;28;20403;-78
2023/10/19 03:55:52;;;;;;;3.55;2.58;;;8.60;99.90;;;;;;5004453;28;20042;-78
2023/10/19 03:58:20;;;;;;;3.40;2.35;;;8.60;99.90;;;;;;4988317;28;20038;-79
2023/10/19 04:00:48;;;;;;;5.15;2.85;;;8.60;99.90;;;;;;5017113;28;20049;-78
2023/10/19 04:03:14;;;;;;;5.10;2.03;;;8.60;99.90;;;;;;5021661;28;20069;-79
2023/10/19 04:05:41;;;;;;;4.05;2.67;;;8.70;99.90;;;;;;5003056;28;20206;-78
2023/10/19 04:08:14;;;;;;;2.83;1.75;;;8.60;99.90;;;;;;5020602;28;20060;-77
2023/10/19 04:10:44;;;;;;;3.45;1.95;;;8.70;99.90;;;;;;5020756;28;20052;-78
2023/10/19 04:13:11;;;;;;;4.15;2.50;;;8.70;99.90;;;;;;5022086;28;20081;-78
2023/10/19 04:15:36;;;;;;;4.60;2.55;;;8.70;99.90;;;;;;5024298;28;20053;-78
2023/10/19 04:18:10;;;;;;;4.70;3.03;;;8.70;99.90;;;;;;5012195;28;20547;-78
2023/10/19 04:23:20;;;;;;;4.53;2.38;;;8.70;99.90;;;;;;5009761;28;20060;-78
2023/10/19 04:25:46;;;;;;;5.70;3.40;;;8.70;99.90;;;;;;5019499;28;20274;-78
2023/10/19 04:28:13;;;;;;;3.67;3.15;;;8.70;99.90;;;;;;5016304;28;20052;-78
2023/10/19 04:30:39;;;;;;;3.55;2.80;;;8.70;99.90;;;;;;5023864;28;20029;-78
2023/10/19 04:33:09;;;;;;;6.32;2.50;;;8.70;99.90;;;;;;5024845;28;20488;-78
2023/10/19 04:35:36;;;;;;;4.15;2.95;;;8.70;99.90;;;;;;5018821;28;20103;-78
2023/10/19 04:38:06;;;;;;;4.85;2.90;;;8.80;99.90;;;;;;5022857;28;20045;-78
2023/10/19 04:40:32;;;;;;;7.00;3.13;;;8.80;99.90;;;;;;5013811;28;20084;-78
2023/10/19 04:42:58;;;;;;;3.25;2.45;;;8.80;99.90;;;;;;5013286;28;20045;-78
2023/10/19 04:45:23;;;;;;;6.55;2.78;;;8.80;99.90;;;;;;5015985;28;20054;-78
2023/10/19 04:47:52;;;;;;;4.82;3.60;;;8.80;99.90;;;;;;5024052;28;20044;-78
2023/10/19 04:50:18;;;;;;;5.93;3.83;;;8.80;99.90;;;;;;5021325;28;20041;-78
2023/10/19 04:52:44;;;;;;;5.68;3.40;;;8.80;99.90;;;;;;5022945;28;20042;-78
2023/10/19 04:55:10;;;;;;;6.85;3.47;;;8.80;99.90;;;;;;5013637;28;20094;-80
2023/10/19 04:57:35;;;;;;;5.50;3.13;;;8.80;99.90;;;;;;5013277;28;20048;-78
2023/10/19 05:00:01;;;;;;;3.28;2.25;;;8.90;99.90;;;;;;5023618;28;20428;-78
2023/10/19 05:02:27;;;;;;;4.60;2.88;;;8.80;99.90;;;;;;5021353;28;20037;-78
2023/10/19 05:04:52;;;;;;;10.05;3.88;;;8.80;99.90;;;;;;5019882;28;20041;-78
2023/10/19 05:07:18;;;;;;;5.20;2.45;;;8.90;99.90;;;;;;5021355;28;20049;-79
2023/10/19 05:09:44;;;;;;;3.85;2.08;;;8.90;99.90;;;;;;5022171;28;20045;-78
2023/10/19 05:12:11;;;;;;;5.05;2.72;;;8.80;99.90;;;;;;5009702;28;20237;-78
2023/10/19 05:14:38;;;;;;;4.32;2.65;;;8.90;99.90;;;;;;5011507;28;20045;-78
2023/10/19 05:17:04;;;;;;;6.55;3.28;;;8.90;99.90;;;;;;5021062;28;20044;-78
2023/10/19 05:19:31;;;;;;;3.63;2.38;;;8.80;99.90;;;;;;5020646;28;20053;-78
2023/10/19 05:21:57;;;;;;;5.60;2.63;;;8.90;99.90;;;;;;5010597;28;20100;-78
2023/10/19 05:24:22;;;;;;;4.65;2.63;;;8.90;99.90;;;;;;5011348;28;20434;-78
2023/10/19 05:26:49;;;;;;;4.00;2.58;;;8.90;99.90;;;;;;5010685;28;20100;-79
2023/10/19 05:29:15;;;;;;;3.40;2.42;;;8.90;99.90;;;;;;5022293;28;20043;-76
2023/10/19 05:31:41;;;;;;;4.38;2.45;;;8.90;99.90;;;;;;5032851;28;20135;-77
2023/10/19 05:34:08;;;;;;;5.05;2.50;;;8.90;99.90;;;;;;5022344;28;20120;-79
2023/10/19 05:36:33;;;;;;;4.47;2.28;;;8.90;99.90;;;;;;5019402;28;20054;-79
2023/10/19 05:38:59;;;;;;;5.53;2.72;;;8.90;99.90;;;;;;5009381;28;20642;-78
2023/10/19 05:41:26;;;;;;;4.13;2.35;;;9.00;99.90;;;;;;5022757;28;20120;-78
2023/10/19 05:43:53;;;;;;;5.60;2.72;;;9.00;99.90;;;;;;5019394;28;20173;-79
2023/10/19 05:46:21;;;;;;;5.63;3.45;;;9.00;99.90;;;;;;5020045;28;20144;-79
2023/10/19 05:48:49;;;;;;;4.75;2.28;;;9.00;99.90;;;;;;5016261;28;20081;-79
2023/10/19 05:51:17;;;;;;;4.10;3.10;;;9.00;99.90;;;;;;5020389;28;20044;-83
2023/10/19 05:53:44;;;;;;;3.30;2.47;;;9.00;99.90;;;;;;5020871;28;20096;-78
2023/10/19 05:56:10;;;;;;;4.10;2.67;;;9.00;99.90;;;;;;5016862;28;20521;-81
2023/10/19 05:58:36;;;;;;;2.95;2.35;;;9.00;99.90;;;;;;5013720;28;20041;-79
2023/10/19 06:01:02;;;;;;;5.65;2.88;;;9.00;99.90;;;;;;5016516;28;20107;-77
2023/10/19 06:03:28;;;;;;;4.80;2.35;;;9.00;99.90;;;;;;5026535;28;20065;-83
2023/10/19 06:05:56;;;;;;;2.58;2.38;;;9.10;99.90;;;;;;5010616;28;20171;-83
2023/10/19 06:08:22;;;;;;;4.53;1.95;;;9.10;99.90;;;;;;5020668;28;20061;-83
2023/10/19 06:10:53;;;;;;;8.52;2.95;;;9.10;99.90;;;;;;5018551;28;20071;-84
2023/10/19 06:13:20;;;;;;;3.80;2.43;;;9.10;99.90;;;;;;5022799;28;20041;-80
2023/10/19 06:15:48;;;;;;;3.78;2.28;;;9.10;99.90;;;;;;5024654;28;20349;-85
2023/10/19 06:18:13;;;;;;;3.88;2.58;;;9.10;99.90;;;;;;5026739;28;20045;-82
2023/10/19 06:20:44;;;;;;;5.38;2.42;;;9.10;99.90;;;;;;5037779;28;20760;-82
2023/10/19 06:23:11;;;;;;;6.13;3.10;;;9.10;99.90;;;;;;5026855;28;20053;-81
2023/10/19 06:25:37;;;;;;;5.30;2.72;;;9.10;99.90;;;;;;5023931;28;20053;-81
2023/10/19 06:28:03;;;;;;;5.25;2.88;;;9.10;99.90;;;;;;5035196;28;20042;-82
2023/10/19 06:30:29;;;;;;;4.20;2.08;;;9.20;99.90;;;;;;5032700;28;20319;-81
2023/10/19 06:32:59;;;;;;;4.63;2.53;;;9.10;99.90;;;;;;5024513;28;20037;-83
2023/10/19 06:35:25;;;;;;;7.38;2.80;;;9.20;99.90;;;;;;5025262;28;20048;-81
2023/10/19 06:37:52;;;;;;;5.05;2.00;;;9.20;99.90;;;;;;5037160;28;20064;-80
2023/10/19 06:40:18;;;;;;;6.70;2.60;;;9.20;99.90;;;;;;5029179;28;20444;-81
2023/10/19 06:42:47;;;;;;;6.53;3.92;;;9.20;99.90;;;;;;5027816;28;20060;-80
2023/10/19 06:45:14;;;;;;;4.75;2.88;;;9.20;99.90;;;;;;5030182;28;20487;-80
2023/10/19 06:47:47;;;;;;;8.27;2.83;;;9.20;99.90;;;;;;5027231;28;20048;-81
2023/10/19 06:50:15;;;;;;;6.13;2.45;;;9.20;99.90;;;;;;5028409;28;20053;-81
2023/10/19 06:52:42;;;;;;;3.38;2.05;;;9.20;99.90;;;;;;5022421;28;20093;-81
2023/10/19 06:55:22;;;;;;;3.47;2.95;;;9.20;99.90;;;;;;5028592;28;20045;-81
2023/10/19 06:57:50;;;;;;;5.90;2.65;;;9.20;99.90;;;;;;5018350;28;20566;-81
2023/10/19 07:00:21;;;;;;;3.60;2.53;;;9.20;99.90;;;;;;5030493;28;20099;-81
2023/10/19 07:02:47;;;;;;;6.50;2.88;;;9.30;99.90;;;;;;5025373;28;20036;-81
2023/10/19 07:05:17;;;;;;;6.38;3.00;;;9.30;99.90;;;;;;5034192;28;20037;-81
2023/10/19 07:07:44;;;;;;;4.47;2.40;;;9.30;99.90;;;;;;5024561;28;20079;-81
2023/10/19 07:10:14;;;;;;;6.47;2.70;;;9.30;99.90;;;;;;5031859;28;20041;-81
2023/10/19 07:12:44;;;;;;;7.95;3.13;;;9.30;99.90;;;;;;5029261;28;20048;-81
2023/10/19 07:15:19;;;;;;;3.85;2.90;;;9.30;99.90;;;;;;5022911;28;20124;-80
2023/10/19 07:17:50;;;;;;;5.20;2.58;;;9.30;99.90;;;;;;5022835;28;20048;-81
2023/10/19 07:20:31;;;;;;;5.82;3.28;;;9.30;99.90;;;;;;5020661;28;21930;-79
2023/10/19 07:23:10;;;;;;;5.05;2.33;;;9.30;99.90;;;;;;5011441;28;20053;-79
2023/10/19 07:25:45;;;;;;;5.22;2.20;;;9.30;99.90;;;;;;5024796;28;20037;-79
2023/10/19 07:28:14;;;;;;;3.63;2.83;;;9.30;99.90;;;;;;5026985;28;20037;-80
2023/10/19 07:30:41;;;;;;;5.25;3.60;;;9.30;99.90;;;;;;5029176;28;20438;-79
2023/10/19 07:33:09;;;;;;;5.88;3.53;;;9.30;99.90;;;;;;5003683;28;20038;-80
2023/10/19 07:35:38;;;;;;;6.45;3.42;;;9.40;99.90;;;;;;5022171;28;20033;-79
2023/10/19 07:38:07;;;;;;;4.63;3.60;;;9.30;99.90;;;;;;5022063;28;20068;-79
2023/10/19 07:40:33;;;;;;;8.00;4.57;;;9.40;99.90;;;;;;5022124;28;20149;-78
2023/10/19 07:42:59;;;;;;;7.20;3.78;;;9.40;99.90;;;;;;5018484;28;20041;-79
2023/10/19 07:45:25;;;;;;;7.20;4.30;;;9.30;99.90;;;;;;5018095;28;20048;-79
2023/10/19 07:47:51;;;;;;;9.88;5.47;;;9.40;99.90;;;;;;5005873;28;20049;-79
2023/10/19 07:50:16;;;;;;;9.68;5.65;;;9.40;99.90;;;;;;5024095;28;20030;-79
2023/10/19 07:52:53;;;;;;;9.80;5.15;;;9.40;99.90;;;;;;5008228;28;20567;-79
2023/10/19 07:55:22;;;;;;;8.90;4.75;;;9.40;99.90;;;;;;4992502;28;20025;-79
2023/10/19 07:57:50;;;;;;;8.70;5.18;;;9.40;99.90;;;;;;5021958;28;20061;-79
2023/10/19 08:00:17;;;;;;;8.15;5.07;;;9.40;99.90;;;;;;5006396;28;20041;-79
2023/10/19 08:02:45;;;;;;;9.45;5.60;;;9.40;99.90;;;;;;5023474;28;20037;-78
2023/10/19 08:05:14;;;;;;;10.48;5.28;;;9.50;99.90;;;;;;5021134;28;20068;-79
2023/10/19 08:07:42;;;;;;;9.18;4.68;;;9.40;99.90;;;;;;5022238;28;20174;-79
2023/10/19 08:10:10;;;;;;;10.05;5.78;;;9.50;99.90;;;;;;5023978;28;20045;-78
2023/10/19 08:12:36;;;;;;;10.48;4.95;;;9.50;99.90;;;;;;5023880;28;20041;-81
2023/10/19 08:15:03;;;;;;;10.82;5.50;;;9.50;99.90;;;;;;5022078;28;20080;-79
2023/10/19 08:17:30;;;;;;;6.95;5.32;;;9.50;99.90;;;;;;5024180;28;20041;-79
2023/10/19 08:19:56;;;;;;;10.77;5.88;;;9.60;99.90;;;;;;5020617;28;20065;-79
2023/10/19 08:22:23;;;;;;;19.27;6.25;;;9.60;99.90;;;;;;5022476;28;20033;-80
2023/10/19 08:24:49;;;;;;;12.75;5.95;;;9.60;99.90;;;;;;5023358;28;20049;-79
2023/10/19 08:27:17;;;;;;;11.25;6.03;;;9.60;99.90;;;;;;5023755;28;20049;-79
2023/10/19 08:29:43;;;;;;;12.30;6.30;;;9.60;99.90;;;;;;5023168;28;20045;-79
2023/10/19 08:32:09;;;;;;;10.30;5.43;;;9.60;99.90;;;;;;5024076;28;20121;-79
2023/10/19 08:34:36;;;;;;;9.73;4.75;;;9.70;99.90;;;;;;5021244;28;20049;-79
2023/10/19 08:37:02;;;;;;;11.02;6.18;;;9.70;99.90;;;;;;5023637;28;20060;-79
2023/10/19 08:39:28;;;;;;;13.20;6.18;;;9.60;99.90;;;;;;5022999;28;20140;-79
2023/10/19 08:41:55;;;;;;;10.10;5.95;;;9.70;99.90;;;;;;5024267;28;20476;-79
2023/10/19 08:44:21;;;;;;;13.68;6.13;;;9.70;99.90;;;;;;5024393;28;20404;-79
2023/10/19 08:46:51;;;;;;;9.80;5.78;;;9.70;99.90;;;;;;5024093;28;20034;-79
2023/10/19 08:49:19;;;;;;;8.07;5.13;;;9.70;99.90;;;;;;5023005;28;20046;-79
2023/10/19 08:51:46;;;;;;;10.65;5.25;;;9.70;99.90;;;;;;5024038;28;20049;-79
2023/10/19 08:54:13;;;;;;;13.43;5.07;;;9.80;99.90;;;;;;5022940;28;20042;-78
2023/10/19 08:56:41;;;;;;;13.98;6.20;;;9.80;99.90;;;;;;5024222;28;20057;-79
2023/10/19 08:59:07;;;;;;;10.02;6.05;;;9.80;99.90;;;;;;5022646;28;20060;-79
2023/10/19 09:01:35;;;;;;;12.45;5.85;;;9.80;99.90;;;;;;5023168;28;20038;-79
2023/10/19 09:04:01;;;;;;;11.98;5.63;;;9.80;99.90;;;;;;5021117;28;20142;-79
2023/10/19 09:06:28;;;;;;;10.23;6.22;;;9.80;99.90;;;;;;5022887;28;20104;-79
2023/10/19 09:09:02;;;;;;;10.32;5.50;;;9.90;99.90;;;;;;5023247;28;20905;-79
2023/10/19 09:11:28;;;;;;;11.20;5.57;;;9.90;99.90;;;;;;5005193;28;20045;-78
2023/10/19 09:13:53;;;;;;;12.10;5.22;;;9.90;99.90;;;;;;5023664;28;20072;-79
2023/10/19 09:16:22;;;;;;;10.60;6.00;;;9.90;99.90;;;;;;5023055;28;20071;-79
2023/10/19 09:18:49;;;;;;;11.32;6.53;;;9.90;99.90;;;;;;5022550;28;20041;-79
2023/10/19 09:21:24;;;;;;;16.90;7.00;;;9.90;99.90;;;;;;5022523;28;20124;-79
2023/10/19 09:23:51;;;;;;;12.00;6.63;;;9.90;99.90;;;;;;5023623;28;20038;-78
2023/10/19 09:26:17;;;;;;;15.07;6.78;;;9.90;99.90;;;;;;5005009;28;20049;-79
2023/10/19 09:28:48;;;;;;;11.02;6.10;;;10.00;99.90;;;;;;5021599;28;20049;-79
2023/10/19 09:31:16;;;;;;;13.15;5.50;;;9.90;99.90;;;;;;5022972;28;20041;-78
2023/10/19 09:33:43;;;;;;;11.20;5.43;;;10.00;99.90;;;;;;5004586;28;20395;-79
2023/10/19 09:36:12;;;;;;;12.80;5.47;;;10.00;99.90;;;;;;5022006;28;20455;-79
2023/10/19 09:38:50;;;;;;;12.48;5.95;;;10.00;99.90;;;;;;5022847;28;20042;-79
2023/10/19 09:41:18;;;;;;;11.82;5.70;;;10.00;99.90;;;;;;5020342;28;20539;-79
2023/10/19 09:43:46;;;;;;;11.73;5.70;;;10.10;99.90;;;;;;5021552;28;20048;-79
2023/10/19 09:46:17;;;;;;;10.38;5.63;;;10.10;99.90;;;;;;5022570;28;20383;-79
2023/10/19 09:48:47;;;;;;;11.70;5.93;;;10.10;99.90;;;;;;5022032;28;20124;-79
2023/10/19 09:51:14;;;;;;;14.10;6.47;;;10.20;99.90;;;;;;5021317;28;20505;-79
2023/10/19 09:53:40;;;;;;;14.88;6.72;;;10.10;99.90;;;;;;5022761;28;20045;-78
2023/10/19 09:56:13;;;;;;;20.92;7.10;;;10.20;99.90;;;;;;5022033;28;20658;-79
2023/10/19 09:58:45;;;;;;;19.25;6.68;;;10.20;99.90;;;;;;5022957;28;20538;-79
2023/10/19 10:01:14;;;;;;;19.05;6.95;;;10.20;99.90;;;;;;5021709;28;20050;-79
2023/10/19 10:03:43;;;;;;;17.70;7.03;;;10.20;99.90;;;;;;5020284;28;20045;-79
2023/10/19 10:06:14;;;;;;;12.73;5.75;;;10.30;99.90;;;;;;5021016;28;20056;-79
2023/10/19 10:08:49;;;;;;;13.27;6.85;;;10.20;99.90;;;;;;5021033;28;20045;-79
2023/10/19 10:11:28;;;;;;;13.98;7.20;;;10.30;99.90;;;;;;5022223;28;20045;-79
2023/10/19 10:13:58;;;;;;;14.75;6.25;;;10.30;99.90;;;;;;5020818;28;20049;-79
2023/10/19 10:16:26;;;;;;;13.00;5.90;;;10.30;99.90;;;;;;5020114;28;20037;-79
2023/10/19 10:18:57;;;;;;;14.93;6.60;;;10.40;99.90;;;;;;5019832;28;20037;-79
2023/10/19 10:21:26;;;;;;;9.73;5.82;;;10.40;99.90;;;;;;5006263;28;20060;-80
2023/10/19 10:23:54;;;;;;;15.52;6.30;;;10.40;99.90;;;;;;5017458;28;20041;-80
2023/10/19 10:26:24;;;;;;;13.20;5.38;;;10.40;99.90;;;;;;5004009;28;20099;-79
2023/10/19 10:29:34;;;;;;;13.18;7.80;;;10.50;99.90;;;;;;5022045;28;20033;-80
2023/10/19 10:31:59;;;;;;;12.43;5.60;;;10.50;99.90;;;;;;5016478;28;20065;-80
2023/10/19 10:34:37;;;;;;;13.15;7.22;;;10.50;99.90;;;;;;5019887;28;20487;-78
2023/10/19 10:37:07;;;;;;;17.63;8.50;;;10.50;99.90;;;;;;5021360;28;20057;-79
2023/10/19 10:39:34;;;;;;;14.90;7.53;;;10.60;99.90;;;;;;5021109;28;20042;-79
2023/10/19 10:42:02;;;;;;;14.63;7.10;;;10.60;99.90;;;;;;5020671;28;20048;-80
2023/10/19 10:44:52;;;;;;;12.88;6.93;;;10.60;99.90;;;;;;5019796;28;20107;-79
2023/10/19 10:47:24;;;;;;;18.20;7.03;;;10.70;99.90;;;;;;5016174;28;20045;-77
2023/10/19 10:49:55;;;;;;;13.68;6.40;;;10.70;99.90;;;;;;4998695;28;20038;-77
2023/10/19 10:52:34;;;;;;;10.88;6.40;;;10.70;99.90;;;;;;5000891;28;20415;-77
2023/10/19 10:55:16;;;;;;;14.02;6.32;;;10.80;99.90;;;;;;5004846;28;20333;-76
2023/10/19 10:57:43;;;;;;;18.05;7.28;;;10.80;99.90;;;;;;5000050;28;20317;-79
2023/10/19 11:00:22;;;;;;;15.32;6.90;;;10.80;99.90;;;;;;5001873;28;20041;-79
2023/10/19 11:03:00;;;;;;;17.05;7.13;;;10.80;99.90;;;;;;4999745;28;20046;-78
2023/10/19 11:05:26;;;;;;;16.42;8.25;;;10.90;99.90;;;;;;5015414;28;20132;-78
2023/10/19 11:08:09;;;;;;;14.27;6.22;;;11.00;99.90;;;;;;5019960;28;20551;-78
2023/10/19 11:10:36;;;;;;;15.85;7.75;;;11.10;99.90;;;;;;5023601;28;20561;-78
2023/10/19 11:13:07;;;;;;;20.80;7.18;;;11.10;99.90;;;;;;5024528;28;20124;-78
2023/10/19 11:15:33;;;;;;;20.38;9.23;;;11.20;99.90;;;;;;5014612;28;20302;-78
2023/10/19 11:17:59;;;;;;;21.77;9.93;;;11.20;99.90;;;;;;5020368;28;20042;-78
2023/10/19 11:20:27;;;;;;;17.15;9.43;;;11.30;99.90;;;;;;5025504;28;20446;-80
2023/10/19 11:22:55;;;;;;;20.40;8.32;;;11.30;99.90;;;;;;5023306;28;20265;-78
2023/10/19 11:25:28;;;;;;;20.52;9.20;;;11.30;99.90;;;;;;5024156;28;20469;-78
2023/10/19 11:27:54;;;;;;;25.58;9.32;;;11.40;99.90;;;;;;5023446;28;20051;-78
2023/10/19 11:30:28;;;;;;;16.88;7.43;;;11.40;99.90;;;;;;5023746;28;20072;-78
2023/10/19 11:32:58;;;;;;;19.40;8.82;;;11.40;99.90;;;;;;5022364;28;20443;-78
2023/10/19 11:35:30;;;;;;;19.85;8.80;;;11.40;99.90;;;;;;5023325;28;20144;-78
2023/10/19 11:38:02;;;;;;;21.13;9.85;;;11.40;99.90;;;;;;5023847;28;20033;-78
2023/10/19 11:40:28;;;;;;;21.88;9.98;;;11.40;99.90;;;;;;5023873;28;20046;-78
2023/10/19 11:42:56;;;;;;;21.02;9.32;;;11.40;99.90;;;;;;5023642;28;20046;-78
2023/10/19 11:45:23;;;;;;;17.63;8.82;;;11.40;99.90;;;;;;5022608;28;20733;-78
2023/10/19 11:47:50;;;;;;;22.15;10.20;;;11.40;99.90;;;;;;5022234;28;20427;-78
2023/10/19 11:50:17;;;;;;;21.52;8.95;;;11.50;99.90;;;;;;5024273;28;20176;-78
2023/10/19 11:52:45;;;;;;;15.80;7.97;;;11.50;99.90;;;;;;5022276;28;20045;-79
2023/10/19 11:55:13;;;;;;;22.23;9.27;;;11.50;99.90;;;;;;5005607;28;20112;-79
2023/10/19 11:57:43;;;;;;;19.02;8.82;;;11.50;99.90;;;;;;5023029;28;20045;-78
2023/10/19 12:00:13;;;;;;;19.92;8.32;;;11.50;99.90;;;;;;5005571;28;20563;-78
2023/10/19 12:02:40;;;;;;;12.05;6.50;;;11.50;99.90;;;;;;5005481;28;20087;-78
2023/10/19 12:05:10;;;;;;;16.25;6.55;;;11.50;99.90;;;;;;5005672;28;20610;-78
2023/10/19 12:07:37;;;;;;;11.00;6.47;;;11.50;99.90;;;;;;5005105;28;20095;-78
2023/10/19 12:10:04;;;;;;;8.85;5.57;;;11.50;99.90;;;;;;5022015;28;20060;-78
2023/10/19 12:12:29;;;;;;;12.70;5.63;;;11.50;99.90;;;;;;5021536;28;20107;-77
2023/10/19 12:14:55;;;;;;;9.82;4.72;;;11.50;99.90;;;;;;5023532;28;20041;-78
2023/10/19 12:17:22;;;;;;;12.20;5.80;;;11.50;99.90;;;;;;5022611;28;20041;-78
2023/10/19 12:19:47;;;;;;;9.88;5.88;;;11.40;99.90;;;;;;5021697;28;20045;-78
2023/10/19 12:22:13;;;;;;;12.15;5.90;;;11.40;99.90;;;;;;5021682;28;20056;-79
2023/10/19 12:24:39;;;;;;;11.95;5.57;;;11.40;99.90;;;;;;5021916;28;20065;-78
2023/10/19 12:27:04;;;;;;;11.27;5.13;;;11.40;99.90;;;;;;5021986;28;20045;-78
2023/10/19 12:29:31;;;;;;;8.75;5.10;;;11.40;99.90;;;;;;5021954;28;20051;-78
2023/10/19 12:31:57;;;;;;;10.20;5.28;;;11.40;99.90;;;;;;5021077;28;20041;-78
2023/10/19 12:34:23;;;;;;;9.80;5.85;;;11.40;99.90;;;;;;5020013;28;20369;-78
2023/10/19 12:36:49;;;;;;;7.18;4.30;;;11.40;99.90;;;;;;5022061;28;20475;-78
2023/10/19 12:39:57;;;;;;;9.82;4.35;;;11.30;99.90;;;;;;5021677;28;20433;-78
2023/10/19 12:42:04;;;;;;;8.70;4.22;;;11.30;99.90;;;;;;5011104;28;20054;-78
2023/10/19 12:44:32;;;;;;;7.60;4.38;;;11.30;99.90;;;;;;5021430;28;20381;-78
2023/10/19 12:46:58;;;;;;;6.57;3.97;;;11.30;99.90;;;;;;5021097;28;20045;-78
2023/10/19 12:49:25;;;;;;;5.85;4.85;;;11.30;99.90;;;;;;5021083;28;20492;-78
2023/10/19 12:51:52;;;;;;;9.73;4.30;;;11.40;99.90;;;;;;5021147;28;20111;-78
2023/10/19 12:54:18;;;;;;;6.30;4.32;;;11.30;99.90;;;;;;5021422;28;20056;-78
2023/10/19 12:56:43;;;;;;;9.05;3.30;;;11.30;99.90;;;;;;5005836;28;20053;-78
2023/10/19 12:59:09;;;;;;;7.10;3.72;;;11.30;99.90;;;;;;5022292;28;20053;-79
2023/10/19 13:01:35;;;;;;;5.45;4.13;;;11.30;99.90;;;;;;5011051;28;20741;-79
2023/10/19 13:04:16;;;;;;;5.95;3.72;;;11.20;99.90;;;;;;5007077;28;20048;-78
2023/10/19 13:06:42;;;;;;;5.90;3.35;;;11.20;99.90;;;;;;5013634;28;20099;-79
2023/10/19 13:09:09;;;;;;;5.32;3.13;;;11.20;99.90;;;;;;5022733;28;20065;-79
2023/10/19 13:11:34;;;;;;;6.75;3.47;;;11.10;99.90;;;;;;5022796;28;20049;-79
2023/10/19 13:14:06;;;;;;;4.38;3.25;;;11.10;99.90;;;;;;5021778;28;20046;-79
2023/10/19 13:16:32;;;;;;;4.80;3.08;;;11.20;99.90;;;;;;5022139;28;20049;-79
2023/10/19 13:18:57;;;;;;;4.07;2.75;;;11.10;99.90;;;;;;5018387;28;20056;-78